sensor_id;sensor_type;location;lat;lon;timestamp;temperature;humidity
21039;DHT22;10678;51.002;4.786;2023-06-26T00:01:52;25.00;99.90
21039;DHT22;10678;51.002;4.786;2023-06-26T00:04:17;25.00;99.90
21039;DHT22;10678;51.002;4.786;2023-06-26T00:06:43;25.00;99.90
21039;DHT22;10678;51.002;4.786;2023-06-26T00:09:08;25.00;99.90
21039;DHT22;10678;51.002;4.786;2023-06-26T00:11:34;25.00;99.90
21039;DHT22;10678;51.002;4.786;2023-06-26T00:14:00;25.00;99.90
21039;DHT22;10678;51.002;4.786;2023-06-26T00:16:27;24.80;99.90
21039;DHT22;10678;51.002;4.786;2023-06-26T00:18:53;24.90;99.90
21039;DHT22;10678;51.002;4.786;2023-06-26T00:21:19;24.80;99.90
21039;DHT22;10678;51.002;4.786;2023-06-26T00:23:45;24.80;99.90
21039;DHT22;10678;51.002;4.786;2023-06-26T00:26:11;24.80;99.90
21039;DHT22;10678;51.002;4.786;2023-06-26T00:28:37;24.80;99.90
21039;DHT22;10678;51.002;4.786;2023-06-26T00:31:03;24.70;99.90
21039;DHT22;10678;51.002;4.786;2023-06-26T00:33:29;24.70;99.90
21039;DHT22;10678;51.002;4.786;2023-06-26T00:35:54;24.70;99.90
21039;DHT22;10678;51.002;4.786;2023-06-26T00:38:20;24.70;99.90
21039;DHT22;10678;51.002;4.786;2023-06-26T00:40:46;24.70;99.90
21039;DHT22;10678;51.002;4.786;2023-06-26T00:43:12;24.70;99.90
21039;DHT22;10678;51.002;4.786;2023-06-26T00:45:38;24.60;99.90
21039;DHT22;10678;51.002;4.786;2023-06-26T00:48:04;24.60;99.90
21039;DHT22;10678;51.002;4.786;2023-06-26T00:50:30;24.50;99.90
21039;DHT22;10678;51.002;4.786;2023-06-26T00:52:56;24.50;99.90
21039;DHT22;10678;51.002;4.786;2023-06-26T00:55:26;24.50;99.90
21039;DHT22;10678;51.002;4.786;2023-06-26T00:57:52;24.40;99.90
21039;DHT22;10678;51.002;4.786;2023-06-26T01:00:18;24.40;99.90
21039;DHT22;10678;51.002;4.786;2023-06-26T01:02:44;24.40;99.90
21039;DHT22;10678;51.002;4.786;2023-06-26T01:05:10;24.30;99.90
21039;DHT22;10678;51.002;4.786;2023-06-26T01:07:38;24.30;99.90
21039;DHT22;10678;51.002;4.786;2023-06-26T01:10:05;24.30;99.90
21039;DHT22;10678;51.002;4.786;2023-06-26T01:12:32;24.20;99.90
21039;DHT22;10678;51.002;4.786;2023-06-26T01:14:59;24.20;99.90
21039;DHT22;10678;51.002;4.786;2023-06-26T01:17:29;24.10;99.90
21039;DHT22;10678;51.002;4.786;2023-06-26T01:20:03;24.10;99.90
21039;DHT22;10678;51.002;4.786;2023-06-26T01:22:42;24.10;99.90
21039;DHT22;10678;51.002;4.786;2023-06-26T01:25:33;24.00;99.90
21039;DHT22;10678;51.002;4.786;2023-06-26T01:28:05;24.00;99.90
21039;DHT22;10678;51.002;4.786;2023-06-26T01:30:32;24.00;99.90
21039;DHT22;10678;51.002;4.786;2023-06-26T01:33:00;23.90;99.90
21039;DHT22;10678;51.002;4.786;2023-06-26T01:35:27;23.80;99.90
21039;DHT22;10678;51.002;4.786;2023-06-26T01:37:52;23.80;99.90
21039;DHT22;10678;51.002;4.786;2023-06-26T01:40:18;23.80;99.90
21039;DHT22;10678;51.002;4.786;2023-06-26T01:42:44;23.80;99.90
21039;DHT22;10678;51.002;4.786;2023-06-26T01:45:14;23.70;99.90
21039;DHT22;10678;51.002;4.786;2023-06-26T01:47:47;23.70;99.90
21039;DHT22;10678;51.002;4.786;2023-06-26T01:50:23;23.70;99.90
21039;DHT22;10678;51.002;4.786;2023-06-26T01:53:15;23.60;99.90
21039;DHT22;10678;51.002;4.786;2023-06-26T01:55:47;23.50;99.90
21039;DHT22;10678;51.002;4.786;2023-06-26T01:58:13;23.40;99.90
21039;DHT22;10678;51.002;4.786;2023-06-26T02:00:40;23.40;99.90
21039;DHT22;10678;51.002;4.786;2023-06-26T02:03:06;23.40;99.90
21039;DHT22;10678;51.002;4.786;2023-06-26T02:05:32;23.40;99.90
21039;DHT22;10678;51.002;4.786;2023-06-26T02:07:58;23.30;99.90
21039;DHT22;10678;51.002;4.786;2023-06-26T02:10:24;23.30;99.90
21039;DHT22;10678;51.002;4.786;2023-06-26T02:12:49;23.30;99.90
21039;DHT22;10678;51.002;4.786;2023-06-26T02:15:15;23.30;99.90
21039;DHT22;10678;51.002;4.786;2023-06-26T02:17:40;23.30;99.90
21039;DHT22;10678;51.002;4.786;2023-06-26T02:20:06;23.30;99.90
21039;DHT22;10678;51.002;4.786;2023-06-26T02:22:34;23.30;99.90
21039;DHT22;10678;51.002;4.786;2023-06-26T02:25:00;23.20;99.90
21039;DHT22;10678;51.002;4.786;2023-06-26T02:27:25;23.20;99.90
21039;DHT22;10678;51.002;4.786;2023-06-26T02:29:52;23.20;99.90
21039;DHT22;10678;51.002;4.786;2023-06-26T02:32:18;23.10;99.90
21039;DHT22;10678;51.002;4.786;2023-06-26T02:34:44;23.00;99.90
21039;DHT22;10678;51.002;4.786;2023-06-26T02:37:09;23.00;99.90
21039;DHT22;10678;51.002;4.786;2023-06-26T02:39:35;22.90;99.90
21039;DHT22;10678;51.002;4.786;2023-06-26T02:42:01;23.00;99.90
21039;DHT22;10678;51.002;4.786;2023-06-26T02:44:27;23.00;99.90
21039;DHT22;10678;51.002;4.786;2023-06-26T02:46:53;22.90;99.90
21039;DHT22;10678;51.002;4.786;2023-06-26T02:49:18;22.90;99.90
21039;DHT22;10678;51.002;4.786;2023-06-26T02:51:44;22.90;99.90
21039;DHT22;10678;51.002;4.786;2023-06-26T02:54:09;22.90;99.90
21039;DHT22;10678;51.002;4.786;2023-06-26T02:56:35;22.80;99.90
21039;DHT22;10678;51.002;4.786;2023-06-26T02:59:01;22.80;99.90
21039;DHT22;10678;51.002;4.786;2023-06-26T03:01:26;22.80;99.90
21039;DHT22;10678;51.002;4.786;2023-06-26T03:03:52;22.70;99.90
21039;DHT22;10678;51.002;4.786;2023-06-26T03:06:18;22.70;99.90
21039;DHT22;10678;51.002;4.786;2023-06-26T03:08:43;22.70;99.90
21039;DHT22;10678;51.002;4.786;2023-06-26T03:11:10;22.70;99.90
21039;DHT22;10678;51.002;4.786;2023-06-26T03:13:36;22.70;99.90
21039;DHT22;10678;51.002;4.786;2023-06-26T03:16:03;22.60;99.90
21039;DHT22;10678;51.002;4.786;2023-06-26T03:18:28;22.70;99.90
21039;DHT22;10678;51.002;4.786;2023-06-26T03:20:55;22.60;99.90
21039;DHT22;10678;51.002;4.786;2023-06-26T03:23:22;22.60;99.90
21039;DHT22;10678;51.002;4.786;2023-06-26T03:25:48;22.60;99.90
21039;DHT22;10678;51.002;4.786;2023-06-26T03:28:14;22.60;99.90
21039;DHT22;10678;51.002;4.786;2023-06-26T03:30:39;22.50;99.90
21039;DHT22;10678;51.002;4.786;2023-06-26T03:33:05;22.50;99.90
21039;DHT22;10678;51.002;4.786;2023-06-26T03:35:31;22.50;99.90
21039;DHT22;10678;51.002;4.786;2023-06-26T03:37:57;22.50;99.90
21039;DHT22;10678;51.002;4.786;2023-06-26T03:40:23;22.50;99.90
21039;DHT22;10678;51.002;4.786;2023-06-26T03:42:49;22.50;99.90
21039;DHT22;10678;51.002;4.786;2023-06-26T03:45:14;22.40;99.90
21039;DHT22;10678;51.002;4.786;2023-06-26T03:47:40;22.40;99.90
21039;DHT22;10678;51.002;4.786;2023-06-26T03:50:06;22.40;99.90
21039;DHT22;10678;51.002;4.786;2023-06-26T03:52:31;22.40;99.90
21039;DHT22;10678;51.002;4.786;2023-06-26T03:54:58;22.40;99.90
21039;DHT22;10678;51.002;4.786;2023-06-26T03:57:23;22.30;99.90
21039;DHT22;10678;51.002;4.786;2023-06-26T03:59:50;22.30;99.90
21039;DHT22;10678;51.002;4.786;2023-06-26T04:02:15;22.20;99.90
21039;DHT22;10678;51.002;4.786;2023-06-26T04:04:41;22.30;99.90
21039;DHT22;10678;51.002;4.786;2023-06-26T04:07:06;22.20;99.90
21039;DHT22;10678;51.002;4.786;2023-06-26T04:09:32;22.20;99.90
21039;DHT22;10678;51.002;4.786;2023-06-26T04:11:58;22.10;99.90
21039;DHT22;10678;51.002;4.786;2023-06-26T04:14:23;22.10;99.90
21039;DHT22;10678;51.002;4.786;2023-06-26T04:16:49;22.10;99.90
21039;DHT22;10678;51.002;4.786;2023-06-26T04:19:14;22.10;99.90
21039;DHT22;10678;51.002;4.786;2023-06-26T04:21:40;22.10;99.90
21039;DHT22;10678;51.002;4.786;2023-06-26T04:24:06;22.00;99.90
21039;DHT22;10678;51.002;4.786;2023-06-26T04:26:31;21.90;99.90
21039;DHT22;10678;51.002;4.786;2023-06-26T04:28:57;22.00;99.90
21039;DHT22;10678;51.002;4.786;2023-06-26T04:31:23;21.90;99.90
21039;DHT22;10678;51.002;4.786;2023-06-26T04:33:48;21.90;99.90
21039;DHT22;10678;51.002;4.786;2023-06-26T04:36:20;21.80;99.90
21039;DHT22;10678;51.002;4.786;2023-06-26T04:38:46;21.80;99.90
21039;DHT22;10678;51.002;4.786;2023-06-26T04:41:13;21.80;99.90
21039;DHT22;10678;51.002;4.786;2023-06-26T04:43:39;21.80;99.90
21039;DHT22;10678;51.002;4.786;2023-06-26T04:46:05;21.80;99.90
21039;DHT22;10678;51.002;4.786;2023-06-26T04:48:31;21.80;99.90
21039;DHT22;10678;51.002;4.786;2023-06-26T04:50:57;21.80;99.90
21039;DHT22;10678;51.002;4.786;2023-06-26T04:53:24;21.70;99.90
21039;DHT22;10678;51.002;4.786;2023-06-26T04:55:50;21.70;99.90
21039;DHT22;10678;51.002;4.786;2023-06-26T04:58:16;21.70;99.90
21039;DHT22;10678;51.002;4.786;2023-06-26T05:00:42;21.70;99.90
21039;DHT22;10678;51.002;4.786;2023-06-26T05:03:12;21.70;99.90
21039;DHT22;10678;51.002;4.786;2023-06-26T05:05:38;21.80;99.90
21039;DHT22;10678;51.002;4.786;2023-06-26T05:08:23;21.70;99.90
21039;DHT22;10678;51.002;4.786;2023-06-26T05:10:49;21.70;99.90
21039;DHT22;10678;51.002;4.786;2023-06-26T05:13:15;21.70;99.90
21039;DHT22;10678;51.002;4.786;2023-06-26T05:15:43;21.70;99.90
21039;DHT22;10678;51.002;4.786;2023-06-26T05:18:09;21.70;99.90
21039;DHT22;10678;51.002;4.786;2023-06-26T05:20:36;21.70;99.90
21039;DHT22;10678;51.002;4.786;2023-06-26T05:23:05;21.70;99.90
21039;DHT22;10678;51.002;4.786;2023-06-26T05:25:31;21.70;99.90
21039;DHT22;10678;51.002;4.786;2023-06-26T05:27:58;21.70;99.90
21039;DHT22;10678;51.002;4.786;2023-06-26T05:30:25;21.80;99.90
21039;DHT22;10678;51.002;4.786;2023-06-26T05:32:51;21.70;99.90
21039;DHT22;10678;51.002;4.786;2023-06-26T05:35:18;21.70;99.90
21039;DHT22;10678;51.002;4.786;2023-06-26T05:37:45;21.70;99.90
21039;DHT22;10678;51.002;4.786;2023-06-26T05:40:14;21.70;99.90
21039;DHT22;10678;51.002;4.786;2023-06-26T05:42:39;21.70;99.90
21039;DHT22;10678;51.002;4.786;2023-06-26T05:45:05;21.80;99.90
21039;DHT22;10678;51.002;4.786;2023-06-26T05:47:31;21.80;99.90
21039;DHT22;10678;51.002;4.786;2023-06-26T05:49:57;21.80;99.90
21039;DHT22;10678;51.002;4.786;2023-06-26T05:52:23;21.90;99.90
21039;DHT22;10678;51.002;4.786;2023-06-26T05:54:49;21.90;99.90
21039;DHT22;10678;51.002;4.786;2023-06-26T05:57:15;22.00;99.90
21039;DHT22;10678;51.002;4.786;2023-06-26T05:59:43;22.10;99.90
21039;DHT22;10678;51.002;4.786;2023-06-26T06:02:09;22.10;99.90
21039;DHT22;10678;51.002;4.786;2023-06-26T06:04:34;22.10;99.90
21039;DHT22;10678;51.002;4.786;2023-06-26T06:07:00;22.30;99.90
21039;DHT22;10678;51.002;4.786;2023-06-26T06:09:26;22.40;99.90
21039;DHT22;10678;51.002;4.786;2023-06-26T06:11:52;22.60;99.90
21039;DHT22;10678;51.002;4.786;2023-06-26T06:14:17;22.80;99.90
21039;DHT22;10678;51.002;4.786;2023-06-26T06:16:43;23.00;99.90
21039;DHT22;10678;51.002;4.786;2023-06-26T06:19:08;23.10;99.90
21039;DHT22;10678;51.002;4.786;2023-06-26T06:21:36;23.20;99.90
21039;DHT22;10678;51.002;4.786;2023-06-26T06:24:02;23.40;99.90
21039;DHT22;10678;51.002;4.786;2023-06-26T06:26:28;23.50;99.90
21039;DHT22;10678;51.002;4.786;2023-06-26T06:28:54;23.60;99.90
21039;DHT22;10678;51.002;4.786;2023-06-26T06:31:19;23.80;99.90
21039;DHT22;10678;51.002;4.786;2023-06-26T06:33:45;24.00;99.90
21039;DHT22;10678;51.002;4.786;2023-06-26T06:36:11;24.10;99.90
21039;DHT22;10678;51.002;4.786;2023-06-26T06:38:37;24.20;99.90
21039;DHT22;10678;51.002;4.786;2023-06-26T06:41:02;24.30;99.90
21039;DHT22;10678;51.002;4.786;2023-06-26T06:43:28;24.30;99.90
21039;DHT22;10678;51.002;4.786;2023-06-26T06:45:53;24.50;99.90
21039;DHT22;10678;51.002;4.786;2023-06-26T06:48:19;24.60;99.90
21039;DHT22;10678;51.002;4.786;2023-06-26T06:50:44;24.70;99.90
21039;DHT22;10678;51.002;4.786;2023-06-26T06:53:10;24.80;99.90
21039;DHT22;10678;51.002;4.786;2023-06-26T06:55:36;24.80;99.90
21039;DHT22;10678;51.002;4.786;2023-06-26T06:58:02;24.80;99.90
21039;DHT22;10678;51.002;4.786;2023-06-26T07:00:28;24.90;99.90
21039;DHT22;10678;51.002;4.786;2023-06-26T07:02:53;24.90;99.90
21039;DHT22;10678;51.002;4.786;2023-06-26T07:05:19;25.20;99.90
21039;DHT22;10678;51.002;4.786;2023-06-26T07:07:45;25.40;99.90
21039;DHT22;10678;51.002;4.786;2023-06-26T07:10:12;25.60;99.90
21039;DHT22;10678;51.002;4.786;2023-06-26T07:12:38;25.60;99.90
21039;DHT22;10678;51.002;4.786;2023-06-26T07:15:05;25.60;99.90
21039;DHT22;10678;51.002;4.786;2023-06-26T07:17:32;25.40;99.90
21039;DHT22;10678;51.002;4.786;2023-06-26T07:19:58;25.40;99.90
21039;DHT22;10678;51.002;4.786;2023-06-26T07:22:24;25.40;99.90
21039;DHT22;10678;51.002;4.786;2023-06-26T07:24:49;25.40;99.90
21039;DHT22;10678;51.002;4.786;2023-06-26T07:27:15;25.30;99.90
21039;DHT22;10678;51.002;4.786;2023-06-26T07:29:42;25.20;99.90
21039;DHT22;10678;51.002;4.786;2023-06-26T07:32:08;25.50;99.90
21039;DHT22;10678;51.002;4.786;2023-06-26T07:34:33;25.80;99.90
21039;DHT22;10678;51.002;4.786;2023-06-26T07:36:59;26.10;99.90
21039;DHT22;10678;51.002;4.786;2023-06-26T07:39:25;26.20;99.90
21039;DHT22;10678;51.002;4.786;2023-06-26T07:41:50;26.20;99.90
21039;DHT22;10678;51.002;4.786;2023-06-26T07:44:16;26.00;99.90
21039;DHT22;10678;51.002;4.786;2023-06-26T07:46:42;26.00;99.90
21039;DHT22;10678;51.002;4.786;2023-06-26T07:49:07;26.10;99.90
21039;DHT22;10678;51.002;4.786;2023-06-26T07:51:33;26.20;99.90
21039;DHT22;10678;51.002;4.786;2023-06-26T07:53:58;26.30;99.90
21039;DHT22;10678;51.002;4.786;2023-06-26T07:56:24;26.80;99.90
21039;DHT22;10678;51.002;4.786;2023-06-26T07:58:50;27.10;99.90
21039;DHT22;10678;51.002;4.786;2023-06-26T08:01:16;27.30;99.90
21039;DHT22;10678;51.002;4.786;2023-06-26T08:03:41;27.30;99.90
21039;DHT22;10678;51.002;4.786;2023-06-26T08:06:07;27.20;99.90
21039;DHT22;10678;51.002;4.786;2023-06-26T08:08:33;27.30;99.90
21039;DHT22;10678;51.002;4.786;2023-06-26T08:10:58;27.50;99.90
21039;DHT22;10678;51.002;4.786;2023-06-26T08:13:25;27.60;99.90
21039;DHT22;10678;51.002;4.786;2023-06-26T08:15:50;27.70;99.90
21039;DHT22;10678;51.002;4.786;2023-06-26T08:18:17;27.90;99.90
21039;DHT22;10678;51.002;4.786;2023-06-26T08:20:44;28.10;99.90
21039;DHT22;10678;51.002;4.786;2023-06-26T08:23:09;28.40;99.90
21039;DHT22;10678;51.002;4.786;2023-06-26T08:25:35;28.40;99.90
21039;DHT22;10678;51.002;4.786;2023-06-26T08:28:00;28.60;99.90
21039;DHT22;10678;51.002;4.786;2023-06-26T08:30:26;28.70;99.90
21039;DHT22;10678;51.002;4.786;2023-06-26T08:32:57;28.50;99.90
21039;DHT22;10678;51.002;4.786;2023-06-26T08:35:22;28.60;99.90
21039;DHT22;10678;51.002;4.786;2023-06-26T08:37:48;28.80;99.90
21039;DHT22;10678;51.002;4.786;2023-06-26T08:40:17;28.90;99.90
21039;DHT22;10678;51.002;4.786;2023-06-26T08:42:44;29.10;99.90
21039;DHT22;10678;51.002;4.786;2023-06-26T08:45:10;29.10;99.90
21039;DHT22;10678;51.002;4.786;2023-06-26T08:47:37;29.20;99.90
21039;DHT22;10678;51.002;4.786;2023-06-26T08:50:13;29.50;99.50
21039;DHT22;10678;51.002;4.786;2023-06-26T08:53:04;29.70;99.30
21039;DHT22;10678;51.002;4.786;2023-06-26T08:55:35;29.70;99.90
21039;DHT22;10678;51.002;4.786;2023-06-26T08:58:04;30.00;98.30
21039;DHT22;10678;51.002;4.786;2023-06-26T09:00:30;30.00;98.00
21039;DHT22;10678;51.002;4.786;2023-06-26T09:02:56;29.80;96.20
21039;DHT22;10678;51.002;4.786;2023-06-26T09:05:22;29.10;97.10
21039;DHT22;10678;51.002;4.786;2023-06-26T09:07:47;28.90;98.10
21039;DHT22;10678;51.002;4.786;2023-06-26T09:10:13;29.20;99.50
21039;DHT22;10678;51.002;4.786;2023-06-26T09:12:39;29.70;96.40
21039;DHT22;10678;51.002;4.786;2023-06-26T09:15:06;30.00;96.70
21039;DHT22;10678;51.002;4.786;2023-06-26T09:17:34;30.40;95.30
21039;DHT22;10678;51.002;4.786;2023-06-26T09:20:04;30.50;96.90
21039;DHT22;10678;51.002;4.786;2023-06-26T09:22:33;30.80;93.60
21039;DHT22;10678;51.002;4.786;2023-06-26T09:25:01;31.00;94.00
21039;DHT22;10678;51.002;4.786;2023-06-26T09:27:27;30.70;94.40
21039;DHT22;10678;51.002;4.786;2023-06-26T09:29:53;30.30;94.40
21039;DHT22;10678;51.002;4.786;2023-06-26T09:32:18;29.80;92.90
21039;DHT22;10678;51.002;4.786;2023-06-26T09:34:44;29.40;95.70
21039;DHT22;10678;51.002;4.786;2023-06-26T09:37:12;29.60;94.60
21039;DHT22;10678;51.002;4.786;2023-06-26T09:39:39;29.20;95.40
21039;DHT22;10678;51.002;4.786;2023-06-26T09:42:04;29.60;92.50
21039;DHT22;10678;51.002;4.786;2023-06-26T09:44:33;29.70;92.60
21039;DHT22;10678;51.002;4.786;2023-06-26T09:46:59;29.40;91.60
21039;DHT22;10678;51.002;4.786;2023-06-26T09:49:27;29.40;92.80
21039;DHT22;10678;51.002;4.786;2023-06-26T09:51:53;29.80;92.10
21039;DHT22;10678;51.002;4.786;2023-06-26T09:54:21;29.50;91.80
21039;DHT22;10678;51.002;4.786;2023-06-26T09:56:47;29.00;92.50
21039;DHT22;10678;51.002;4.786;2023-06-26T09:59:13;28.90;93.70
21039;DHT22;10678;51.002;4.786;2023-06-26T10:01:43;28.70;93.40
21039;DHT22;10678;51.002;4.786;2023-06-26T10:04:10;29.10;94.10
21039;DHT22;10678;51.002;4.786;2023-06-26T10:06:46;29.70;92.40
21039;DHT22;10678;51.002;4.786;2023-06-26T10:09:15;30.50;91.60
21039;DHT22;10678;51.002;4.786;2023-06-26T10:12:03;30.90;90.10
21039;DHT22;10678;51.002;4.786;2023-06-26T10:14:37;31.40;89.20
21039;DHT22;10678;51.002;4.786;2023-06-26T10:17:09;31.70;84.40
21039;DHT22;10678;51.002;4.786;2023-06-26T10:19:35;32.00;83.20
21039;DHT22;10678;51.002;4.786;2023-06-26T10:22:03;32.10;81.00
21039;DHT22;10678;51.002;4.786;2023-06-26T10:24:31;32.40;79.70
21039;DHT22;10678;51.002;4.786;2023-06-26T10:27:04;32.60;82.90
21039;DHT22;10678;51.002;4.786;2023-06-26T10:29:35;32.20;76.70
21039;DHT22;10678;51.002;4.786;2023-06-26T10:32:02;32.20;80.60
21039;DHT22;10678;51.002;4.786;2023-06-26T10:34:30;32.30;78.00
21039;DHT22;10678;51.002;4.786;2023-06-26T10:37:02;31.80;77.10
21039;DHT22;10678;51.002;4.786;2023-06-26T10:39:49;31.10;76.90
21039;DHT22;10678;51.002;4.786;2023-06-26T10:42:16;30.50;77.80
21039;DHT22;10678;51.002;4.786;2023-06-26T10:44:43;29.90;83.10
21039;DHT22;10678;51.002;4.786;2023-06-26T10:47:09;30.00;86.20
21039;DHT22;10678;51.002;4.786;2023-06-26T10:49:36;30.20;79.90
21039;DHT22;10678;51.002;4.786;2023-06-26T10:52:03;30.20;82.30
21039;DHT22;10678;51.002;4.786;2023-06-26T10:54:30;30.40;84.90
21039;DHT22;10678;51.002;4.786;2023-06-26T10:56:56;30.40;81.60
21039;DHT22;10678;51.002;4.786;2023-06-26T10:59:26;30.00;83.60
21039;DHT22;10678;51.002;4.786;2023-06-26T11:02:04;30.00;83.80
21039;DHT22;10678;51.002;4.786;2023-06-26T11:04:50;30.30;86.10
21039;DHT22;10678;51.002;4.786;2023-06-26T11:07:26;30.10;82.90
21039;DHT22;10678;51.002;4.786;2023-06-26T11:09:55;29.70;85.80
21039;DHT22;10678;51.002;4.786;2023-06-26T11:12:41;29.90;86.60
21039;DHT22;10678;51.002;4.786;2023-06-26T11:15:08;30.70;87.80
21039;DHT22;10678;51.002;4.786;2023-06-26T11:17:35;30.80;84.00
21039;DHT22;10678;51.002;4.786;2023-06-26T11:20:03;31.10;82.00
21039;DHT22;10678;51.002;4.786;2023-06-26T11:22:30;31.40;78.30
21039;DHT22;10678;51.002;4.786;2023-06-26T11:24:59;31.10;80.10
21039;DHT22;10678;51.002;4.786;2023-06-26T11:27:42;30.50;77.00
21039;DHT22;10678;51.002;4.786;2023-06-26T11:30:10;29.90;77.80
21039;DHT22;10678;51.002;4.786;2023-06-26T11:32:39;29.50;78.90
21039;DHT22;10678;51.002;4.786;2023-06-26T11:35:05;29.60;79.10
21039;DHT22;10678;51.002;4.786;2023-06-26T11:37:32;29.40;80.30
21039;DHT22;10678;51.002;4.786;2023-06-26T11:39:58;29.10;79.40
21039;DHT22;10678;51.002;4.786;2023-06-26T11:42:23;29.40;82.40
21039;DHT22;10678;51.002;4.786;2023-06-26T11:44:51;30.10;84.60
21039;DHT22;10678;51.002;4.786;2023-06-26T11:47:18;30.80;80.30
21039;DHT22;10678;51.002;4.786;2023-06-26T11:49:46;31.00;79.70
21039;DHT22;10678;51.002;4.786;2023-06-26T11:52:13;31.40;80.20
21039;DHT22;10678;51.002;4.786;2023-06-26T11:54:41;31.80;79.00
21039;DHT22;10678;51.002;4.786;2023-06-26T11:57:07;32.00;79.60
21039;DHT22;10678;51.002;4.786;2023-06-26T11:59:39;31.90;77.30
21039;DHT22;10678;51.002;4.786;2023-06-26T12:02:07;31.40;75.00
21039;DHT22;10678;51.002;4.786;2023-06-26T12:04:33;30.60;76.90
21039;DHT22;10678;51.002;4.786;2023-06-26T12:07:00;30.50;79.20
21039;DHT22;10678;51.002;4.786;2023-06-26T12:09:29;30.70;78.20
21039;DHT22;10678;51.002;4.786;2023-06-26T12:11:56;31.10;78.60
21039;DHT22;10678;51.002;4.786;2023-06-26T12:14:23;30.80;75.50
21039;DHT22;10678;51.002;4.786;2023-06-26T12:16:51;30.40;74.70
21039;DHT22;10678;51.002;4.786;2023-06-26T12:19:17;30.60;73.90
21039;DHT22;10678;51.002;4.786;2023-06-26T12:21:49;30.50;76.10
21039;DHT22;10678;51.002;4.786;2023-06-26T12:24:22;30.20;74.90
21039;DHT22;10678;51.002;4.786;2023-06-26T12:26:52;30.30;77.30
21039;DHT22;10678;51.002;4.786;2023-06-26T12:29:20;30.80;77.10
21039;DHT22;10678;51.002;4.786;2023-06-26T12:31:49;31.20;75.80
21039;DHT22;10678;51.002;4.786;2023-06-26T12:34:23;31.70;78.20
21039;DHT22;10678;51.002;4.786;2023-06-26T12:36:50;32.20;74.00
21039;DHT22;10678;51.002;4.786;2023-06-26T12:39:20;32.30;73.10
21039;DHT22;10678;51.002;4.786;2023-06-26T12:41:53;32.50;69.80
21039;DHT22;10678;51.002;4.786;2023-06-26T12:44:31;33.00;68.60
21039;DHT22;10678;51.002;4.786;2023-06-26T12:47:01;33.30;65.40
21039;DHT22;10678;51.002;4.786;2023-06-26T12:49:35;33.40;69.80
21039;DHT22;10678;51.002;4.786;2023-06-26T12:52:03;33.60;69.70
21039;DHT22;10678;51.002;4.786;2023-06-26T12:54:29;33.70;70.00
21039;DHT22;10678;51.002;4.786;2023-06-26T12:56:55;33.30;66.20
21039;DHT22;10678;51.002;4.786;2023-06-26T12:59:21;33.10;65.80
21039;DHT22;10678;51.002;4.786;2023-06-26T13:01:47;32.80;66.90
21039;DHT22;10678;51.002;4.786;2023-06-26T13:04:13;32.40;66.40
21039;DHT22;10678;51.002;4.786;2023-06-26T13:06:39;31.70;68.50
21039;DHT22;10678;51.002;4.786;2023-06-26T13:09:04;31.40;70.00
21039;DHT22;10678;51.002;4.786;2023-06-26T13:11:31;30.70;68.90
21039;DHT22;10678;51.002;4.786;2023-06-26T13:13:57;30.50;70.30
21039;DHT22;10678;51.002;4.786;2023-06-26T13:16:23;30.50;73.80
21039;DHT22;10678;51.002;4.786;2023-06-26T13:18:49;30.70;72.20
21039;DHT22;10678;51.002;4.786;2023-06-26T13:21:14;30.60;73.90
21039;DHT22;10678;51.002;4.786;2023-06-26T13:23:40;30.70;71.60
21039;DHT22;10678;51.002;4.786;2023-06-26T13:26:06;30.60;74.50
21039;DHT22;10678;51.002;4.786;2023-06-26T13:28:32;30.40;70.20
21039;DHT22;10678;51.002;4.786;2023-06-26T13:30:58;30.20;70.70
21039;DHT22;10678;51.002;4.786;2023-06-26T13:33:23;29.90;72.30
21039;DHT22;10678;51.002;4.786;2023-06-26T13:35:51;30.00;74.60
21039;DHT22;10678;51.002;4.786;2023-06-26T13:38:19;30.50;74.70
21039;DHT22;10678;51.002;4.786;2023-06-26T13:40:45;30.70;72.30
21039;DHT22;10678;51.002;4.786;2023-06-26T13:43:10;30.90;72.70
21039;DHT22;10678;51.002;4.786;2023-06-26T13:45:37;31.00;71.90
21039;DHT22;10678;51.002;4.786;2023-06-26T13:48:02;30.70;69.30
21039;DHT22;10678;51.002;4.786;2023-06-26T13:50:29;30.10;70.80
21039;DHT22;10678;51.002;4.786;2023-06-26T13:52:55;29.50;71.60
21039;DHT22;10678;51.002;4.786;2023-06-26T13:55:21;29.50;75.10
21039;DHT22;10678;51.002;4.786;2023-06-26T13:57:48;29.50;73.40
21039;DHT22;10678;51.002;4.786;2023-06-26T14:00:15;29.20;72.90
21039;DHT22;10678;51.002;4.786;2023-06-26T14:02:45;28.80;72.30
21039;DHT22;10678;51.002;4.786;2023-06-26T14:05:11;28.70;73.30
21039;DHT22;10678;51.002;4.786;2023-06-26T14:07:36;28.50;73.70
21039;DHT22;10678;51.002;4.786;2023-06-26T14:10:03;28.30;73.40
21039;DHT22;10678;51.002;4.786;2023-06-26T14:12:31;28.20;72.00
21039;DHT22;10678;51.002;4.786;2023-06-26T14:14:57;28.20;76.50
21039;DHT22;10678;51.002;4.786;2023-06-26T14:17:22;28.20;74.80
21039;DHT22;10678;51.002;4.786;2023-06-26T14:19:54;28.30;76.10
21039;DHT22;10678;51.002;4.786;2023-06-26T14:22:20;28.00;75.80
21039;DHT22;10678;51.002;4.786;2023-06-26T14:24:46;27.80;74.10
21039;DHT22;10678;51.002;4.786;2023-06-26T14:27:12;27.50;75.80
21039;DHT22;10678;51.002;4.786;2023-06-26T14:29:37;27.40;76.20
21039;DHT22;10678;51.002;4.786;2023-06-26T14:32:03;27.30;76.50
21039;DHT22;10678;51.002;4.786;2023-06-26T14:34:29;27.30;79.00
21039;DHT22;10678;51.002;4.786;2023-06-26T14:36:55;27.40;79.00
21039;DHT22;10678;51.002;4.786;2023-06-26T14:39:21;27.40;77.40
21039;DHT22;10678;51.002;4.786;2023-06-26T14:41:46;27.20;79.20
21039;DHT22;10678;51.002;4.786;2023-06-26T14:44:14;27.30;82.40
21039;DHT22;10678;51.002;4.786;2023-06-26T14:46:39;27.30;79.20
21039;DHT22;10678;51.002;4.786;2023-06-26T14:49:05;27.30;77.60
21039;DHT22;10678;51.002;4.786;2023-06-26T14:51:31;27.20;79.10
21039;DHT22;10678;51.002;4.786;2023-06-26T14:53:57;27.20;80.10
21039;DHT22;10678;51.002;4.786;2023-06-26T14:56:22;27.10;79.30
21039;DHT22;10678;51.002;4.786;2023-06-26T14:58:49;27.10;80.10
21039;DHT22;10678;51.002;4.786;2023-06-26T15:01:14;27.00;79.80
21039;DHT22;10678;51.002;4.786;2023-06-26T15:03:48;27.00;80.30
21039;DHT22;10678;51.002;4.786;2023-06-26T15:06:13;27.00;82.60
21039;DHT22;10678;51.002;4.786;2023-06-26T15:08:39;27.10;80.30
21039;DHT22;10678;51.002;4.786;2023-06-26T15:11:06;27.10;82.00
21039;DHT22;10678;51.002;4.786;2023-06-26T15:13:32;27.00;83.10
21039;DHT22;10678;51.002;4.786;2023-06-26T15:15:58;27.00;83.40
21039;DHT22;10678;51.002;4.786;2023-06-26T15:18:23;27.00;83.30
21039;DHT22;10678;51.002;4.786;2023-06-26T15:20:49;26.80;83.40
21039;DHT22;10678;51.002;4.786;2023-06-26T15:23:15;26.60;84.90
21039;DHT22;10678;51.002;4.786;2023-06-26T15:25:40;26.50;89.20
21039;DHT22;10678;51.002;4.786;2023-06-26T15:28:06;26.40;88.00
21039;DHT22;10678;51.002;4.786;2023-06-26T15:30:32;26.30;87.00